Utica, NY (13502)

12:21 PM EDT on July 30, 2015 (GMT -0400)
N. Utica - UticaWeatherOnline.com | | Change Station
CLOSE
Current Station
Personal Weather Station
Location: Utica, NY
Elevation: 436 ft
Nearby Weather Stations

Elev 436 ft 43.13 °N, 75.23 °W | Updated 13 seconds ago

Overcast
Overcast
73.5 °F
Feels Like 70 °F
N
1.2
Wind Variable Wind from NW
Gusts 1.2 mph

Today
High -- | Low -- °F
--% Chance of Precip.
Yesterday
High -- | Low -- °F
Precip. -- in
5:49 AM 8:24 PM
Waxing Gibbous, 99% visible
Pressure 29.83 in
Visibility 9.0 miles
Clouds Mostly Cloudy 500 ft
Mostly Cloudy 3100 ft
Overcast 6000 ft
Heat Index 70 °F
Dew Point 72 °F
Humidity 95%
Rainfall 0.05 in
Snow Depth Not available.
UV 3 out of 12
Pollen 6.30 out of 12
Air Quality Not available.
Flu Activity Not available.
METAR KRME 301553Z 26005KT 9SM BKN005 BKN031 OVC060 23/22 A2984 RMK AO2 RAE39 SLP099 P0028 T02330222

More Conditions Fewer Conditions

Pressure 29.83 in
Visibility 9.0 miles
Clouds Mostly Cloudy 500 ft
Mostly Cloudy 3100 ft
Overcast 6000 ft
Heat Index 70 °F
Dew Point 72 °F
Humidity 95%
Rainfall 0.05 in
Snow Depth Not available.
UV 3 out of 12
Pollen 6.30 out of 12
Air Quality Not available.
Flu Activity Not available.
METAR KRME 301553Z 26005KT 9SM BKN005 BKN031 OVC060 23/22 A2984 RMK AO2 RAE39 SLP099 P0028 T02330222

More Conditions Fewer Conditions

10-Day Weather Forecast

×

Almanac

Astronomy

Jul. 30, 2015 Rise Set
Actual Time
Civil Twilight
Nautical Twilight
Astronomical Twilight
Moon
Length of Visible Light
Length of Day
Tomorrow will be .
, % of the Moon is Illuminated

Today's Extremes

State Highs State Lows

Community

WunderPhotos

Upload Photos

1,842,417 photos uploaded!

WunderBlogs® & News

Nearby

Air Quality

  Air Quality AQ Index Pollutant
Not available.

Snow Depth

Station Depth Elevation

Earthquake Activity

City Distance Mag. Time & Date
Minimum magnitude displayed is 2.5.

Coastal Water Temperatures

Place Temperature

Stations

Nearby Weather Stations

Station Location Temp. Windchill Dew Point Humidity Wind Precip. Elev Updated Type